14:26
Airports
History
Links
Donate
Help keep this website running!
PayPal
Bitcoin
Information on this page is community maintained and may be outdated or inaccurate and is intended for reference only or PC simulator navigating!
Always use approved charts for navigating.
SJXM
Carolina de Assis Repetto
Carolina de Assis Repetto (SJXM)
Conceição da Ibitipoca, Minas Gerais, Brazil (36140)
4
Lat/Lng:21° 43' 56" S / 43° 53' 40" W
-21.732222 / -43.894444
Elevation:3452'ft 1052mMSL
ID / ICAO:SJXM
Runways:1
Longest:(07-25) 917.3m 3,010ft Dirt
Distance To
Airport ID:
Nearby WeatherUpdated 03-30-17 14:00 GMT
Nearby weather at SBJF, FRANCISCO DE ASSIS located 32.8 nautical miles from SJXM
Altimeter: 30.09
Visibility: 6.2 statute miles
Wind: 9 knots (230°)
Temp: 21°c 70°f
Humidity: 68.6%

METAR: SBJF 301400Z 23009KT 9999 BKN016 21/15 Q1019

(Powered by phpweather)
Runway 07 / 25
Dimensions:917.3 x 29.9m 3010' x 98'ft
Surface:Dirt
Runway 07 [A]Runway 25 [B]
Heading:045°TH 225°TH
Lat:
Lng:
21° 44' 6.31"S
43° 53' 51.45"W
21° 43' 45.69"S
43° 53' 28.55"W
Google Map
Nearby Airports
4 Fazenda Recreio 20.2 NM
SJJR W 272°
(C) FRANCISCO DE ASSIS 32.8 NM
SBJF (WX) E 97°
(C) MAJOR BRIGADEIRO DOORGAL BORGES 33.3 NM
SBBQ (WX) NNE 14°
4 Valenca 37.1 NM
SDVL SSE 161°
4 Faz do Rochedo 46.0 NM
SNJL E 99°
4 Fazenda Ribeirao 47.8 NM
SIFU S 170°
(U) Regional da Zona da Mata 48.7 NM
SDZY ENE 71°
VFR Chart
Flight Planning at SkyVector.com